createdAt,value
2022-12-15T00:03:10.934Z,98925.34
2022-12-15T00:06:33.556Z,98918.69
2022-12-15T00:09:54.853Z,98918.69
2022-12-15T00:13:16.029Z,98911.38
2022-12-15T00:16:36.786Z,98912.88
2022-12-15T00:19:57.849Z,98915.47
2022-12-15T00:23:27.964Z,98930.75
2022-12-15T00:26:49.417Z,98918.75
2022-12-15T00:30:10.471Z,98908.69
2022-12-15T00:33:31.609Z,98894.25
2022-12-15T00:36:52.620Z,98914.84
2022-12-15T00:40:00.206Z,98912.50
2022-12-15T00:43:04.241Z,98906.47
2022-12-15T00:46:25.684Z,98898.50
2022-12-15T00:49:48.222Z,98926.84
2022-12-15T00:53:09.277Z,98927.38
2022-12-15T00:56:32.067Z,98896.84
2022-12-15T00:59:53.227Z,98878.28
2022-12-15T01:03:14.423Z,98872.81
2022-12-15T01:06:38.656Z,98900.38
2022-12-15T01:09:59.735Z,98893.97
2022-12-15T01:13:23.249Z,98875.31
2022-12-15T01:16:44.307Z,98862.72
2022-12-15T01:20:05.271Z,98861.06
2022-12-15T01:23:09.016Z,98883.06
2022-12-15T01:26:12.790Z,98857.81
2022-12-15T01:29:17.989Z,98859.03
2022-12-15T01:32:21.750Z,98894.09
2022-12-15T01:35:27.017Z,98893.00
2022-12-15T01:38:30.967Z,98890.84
2022-12-15T01:41:33.451Z,98885.78
2022-12-15T01:44:39.651Z,98888.19
2022-12-15T01:47:44.019Z,98880.56
2022-12-15T01:50:55.019Z,98887.41
2022-12-15T01:54:04.551Z,98901.63
2022-12-15T01:57:12.166Z,98881.72
2022-12-15T02:00:17.729Z,98901.94
2022-12-15T02:03:21.872Z,98914.16
2022-12-15T02:06:27.933Z,98923.94
2022-12-15T02:09:32.381Z,98917.59
2022-12-15T02:12:41.797Z,98930.09
2022-12-15T02:15:52.758Z,98950.78
2022-12-15T02:19:04.689Z,98934.63
2022-12-15T02:22:24.596Z,98938.66
2022-12-15T02:25:50.753Z,98935.69
2022-12-15T02:29:04.197Z,98947.63
2022-12-15T02:32:13.714Z,98963.16
2022-12-15T02:35:22.029Z,98938.59
2022-12-15T02:38:33.905Z,98934.31
2022-12-15T02:41:39.840Z,98943.44
2022-12-15T02:44:48.729Z,98964.88
2022-12-15T02:48:05.390Z,98977.25
2022-12-15T02:51:27.630Z,98986.59
2022-12-15T02:54:42.679Z,98952.25
2022-12-15T02:57:54.676Z,98950.13
2022-12-15T03:01:03.415Z,98944.56
2022-12-15T03:04:12.181Z,98949.47
2022-12-15T03:07:16.103Z,98927.69
2022-12-15T03:10:21.699Z,98950.34
2022-12-15T03:13:25.596Z,98948.00
2022-12-15T03:16:29.456Z,98953.47
2022-12-15T03:19:34.651Z,98944.78
2022-12-15T03:22:39.436Z,98936.47
2022-12-15T03:25:43.177Z,98946.97
2022-12-15T03:28:46.870Z,98935.41
2022-12-15T03:31:50.577Z,98944.94
2022-12-15T03:34:55.740Z,98930.91
2022-12-15T03:37:59.518Z,98936.59
2022-12-15T03:41:03.265Z,98929.47
2022-12-15T03:44:07.178Z,98926.84
2022-12-15T03:47:10.938Z,98926.06
2022-12-15T03:50:18.100Z,98919.19
2022-12-15T03:53:21.900Z,98925.22
2022-12-15T03:56:25.502Z,98910.22
2022-12-15T03:59:29.269Z,98907.63
2022-12-15T04:02:33.185Z,98917.13
2022-12-15T04:05:39.131Z,98920.59
2022-12-15T04:08:42.887Z,98903.94
2022-12-15T04:11:46.677Z,98910.44
2022-12-15T04:14:50.251Z,98902.06
2022-12-15T04:17:54.077Z,98898.31
2022-12-15T04:20:59.296Z,98897.78
2022-12-15T04:24:20.496Z,98899.38
2022-12-15T04:27:41.686Z,98894.47
2022-12-15T04:31:06.540Z,98897.06
2022-12-15T04:34:32.781Z,98910.88
2022-12-15T04:37:55.475Z,98892.84
2022-12-15T04:41:16.686Z,98906.41
2022-12-15T04:44:37.821Z,98903.16
2022-12-15T04:47:59.338Z,98910.75
2022-12-15T04:51:20.288Z,98924.06
2022-12-15T04:54:42.464Z,98934.16
2022-12-15T04:58:03.216Z,98937.75
2022-12-15T05:01:24.767Z,98934.31
2022-12-15T05:04:45.877Z,98945.59
2022-12-15T05:08:06.931Z,98949.28
2022-12-15T05:11:29.495Z,98926.41
2022-12-15T05:14:50.681Z,98932.28
2022-12-15T05:18:11.820Z,98920.97
2022-12-15T05:21:32.917Z,98916.91
2022-12-15T05:24:53.655Z,98955.84
2022-12-15T05:28:15.786Z,98944.94
2022-12-15T05:31:36.896Z,98962.13
2022-12-15T05:34:40.702Z,98958.84
2022-12-15T05:37:44.524Z,98963.72
2022-12-15T05:40:48.136Z,98961.88
2022-12-15T05:43:53.376Z,98975.00
2022-12-15T05:46:57.140Z,98990.72
2022-12-15T05:50:01.089Z,98997.03
2022-12-15T05:53:04.796Z,98989.03
2022-12-15T05:56:10.626Z,98988.34
2022-12-15T05:59:16.799Z,98984.03
2022-12-15T06:02:20.653Z,99006.56
2022-12-15T06:05:24.618Z,99025.06
2022-12-15T06:08:28.670Z,99020.53
2022-12-15T06:11:32.407Z,99007.44
2022-12-15T06:14:37.848Z,99009.63
2022-12-15T06:17:41.637Z,99023.13
2022-12-15T06:20:45.470Z,99013.72
2022-12-15T06:23:54.476Z,99018.88
2022-12-15T06:26:58.177Z,99025.63
2022-12-15T06:30:03.353Z,99040.16
2022-12-15T06:33:07.617Z,99039.50
2022-12-15T06:36:13.827Z,99045.91
2022-12-15T06:39:18.126Z,99037.47
2022-12-15T06:42:22.046Z,99035.28
2022-12-15T06:45:27.406Z,99045.13
2022-12-15T06:48:31.856Z,99045.66
2022-12-15T06:51:35.573Z,99046.22
2022-12-15T06:54:39.230Z,99044.88
2022-12-15T06:57:43.026Z,99049.13
2022-12-15T07:00:48.390Z,99054.09
2022-12-15T07:03:54.664Z,99047.63
2022-12-15T07:06:58.636Z,99039.19
2022-12-15T07:10:02.436Z,99039.06
2022-12-15T07:13:06.206Z,99032.63
2022-12-15T07:16:12.990Z,99010.63
2022-12-15T07:19:16.727Z,99056.28
2022-12-15T07:22:21.215Z,99072.06
2022-12-15T07:25:25.176Z,99063.00
2022-12-15T07:28:29.112Z,99065.25
2022-12-15T07:31:34.496Z,99089.56
2022-12-15T07:34:38.310Z,99090.03
2022-12-15T07:37:42.097Z,99079.94
2022-12-15T07:40:45.899Z,99077.25
2022-12-15T07:43:49.796Z,99102.16
2022-12-15T07:46:55.084Z,99084.31
2022-12-15T07:49:59.111Z,99097.41
2022-12-15T07:53:02.838Z,99098.69
2022-12-15T07:56:09.550Z,99089.00
2022-12-15T07:59:14.320Z,99082.53
2022-12-15T08:02:20.193Z,99097.13
2022-12-15T08:05:24.132Z,99084.19
2022-12-15T08:08:27.856Z,99083.38
2022-12-15T08:11:35.311Z,99095.84
2022-12-15T08:14:39.126Z,99087.72
2022-12-15T08:17:46.789Z,99091.25
2022-12-15T08:20:51.152Z,99092.09
2022-12-15T08:23:55.317Z,99096.38
2022-12-15T08:27:00.307Z,99091.78
2022-12-15T08:30:04.238Z,99107.63
2022-12-15T08:33:09.552Z,99111.31
2022-12-15T08:36:15.268Z,99098.03
2022-12-15T08:39:19.049Z,99098.16
2022-12-15T08:42:22.787Z,99103.31
2022-12-15T08:45:26.508Z,99107.88
2022-12-15T08:48:31.652Z,99124.91
2022-12-15T08:51:35.741Z,99112.47
2022-12-15T08:54:39.331Z,99107.06
2022-12-15T08:57:43.191Z,99104.72
2022-12-15T09:00:47.528Z,99105.63
2022-12-15T09:03:54.145Z,99101.13
2022-12-15T09:06:58.369Z,99102.16
2022-12-15T09:10:02.278Z,99098.88
2022-12-15T09:13:06.044Z,99103.94
2022-12-15T09:16:14.797Z,99110.06
2022-12-15T09:19:20.521Z,99108.78
2022-12-15T09:22:24.381Z,99105.91
2022-12-15T09:25:28.082Z,99111.53
2022-12-15T09:28:32.307Z,99109.03
2022-12-15T09:31:39.317Z,99093.84
2022-12-15T09:34:44.561Z,99092.91
2022-12-15T09:37:51.770Z,99086.47
2022-12-15T09:40:56.253Z,99096.00
2022-12-15T09:44:04.042Z,99109.69
2022-12-15T09:47:18.655Z,99096.66
2022-12-15T09:50:29.571Z,99106.03
2022-12-15T09:53:57.720Z,99105.78
2022-12-15T09:56:59.639Z,99103.75
2022-12-15T10:00:21.459Z,99113.91
2022-12-15T10:03:34.953Z,99116.63
2022-12-15T10:06:50.654Z,99096.34
2022-12-15T10:09:54.813Z,99106.38
2022-12-15T10:13:04.511Z,99104.84
2022-12-15T10:16:19.939Z,99108.94
2022-12-15T10:19:33.101Z,99117.09
2022-12-15T10:22:39.286Z,99105.56
2022-12-15T10:25:48.559Z,99090.75
2022-12-15T10:29:07.962Z,99101.84
2022-12-15T10:32:20.088Z,99086.28
2022-12-15T10:35:25.663Z,99083.31
2022-12-15T10:38:38.064Z,99085.00
2022-12-15T10:41:41.851Z,99086.56
2022-12-15T10:44:50.616Z,99086.28
2022-12-15T10:48:02.748Z,99074.22
2022-12-15T10:51:16.922Z,99079.00
2022-12-15T10:54:23.287Z,99087.19
2022-12-15T10:57:30.629Z,99087.91
2022-12-15T11:00:35.576Z,99096.28
2022-12-15T11:03:40.925Z,99091.84
2022-12-15T11:06:45.229Z,99100.78
2022-12-15T11:09:59.902Z,99113.34
2022-12-15T11:13:16.067Z,99103.94
2022-12-15T11:16:21.007Z,99097.22
2022-12-15T11:19:37.620Z,99109.81
2022-12-15T11:22:45.981Z,99115.81
2022-12-15T11:26:08.489Z,99112.16
2022-12-15T11:29:23.068Z,99124.13
2022-12-15T11:32:30.151Z,99116.66
2022-12-15T11:35:48.990Z,99113.06
2022-12-15T11:39:01.439Z,99107.13
2022-12-15T11:42:13.481Z,99110.00
2022-12-15T11:45:22.490Z,99095.47
2022-12-15T11:48:36.652Z,99103.50
2022-12-15T11:51:45.909Z,99118.84
2022-12-15T11:54:57.175Z,99122.41
2022-12-15T11:58:20.680Z,99121.00
2022-12-15T12:01:51.622Z,99121.59
2022-12-15T12:05:15.720Z,99120.47
2022-12-15T12:08:36.767Z,99117.16
2022-12-15T12:11:46.307Z,99117.00
2022-12-15T12:15:09.527Z,99119.50
2022-12-15T12:18:19.936Z,99121.81
2022-12-15T12:21:29.081Z,99112.53
2022-12-15T12:24:38.910Z,99118.06
2022-12-15T12:27:50.483Z,99121.66
2022-12-15T12:30:59.908Z,99133.16
2022-12-15T12:34:10.761Z,99135.09
2022-12-15T12:37:23.170Z,99134.53
2022-12-15T12:40:32.899Z,99137.00
2022-12-15T12:43:41.957Z,99137.66
2022-12-15T12:46:51.571Z,99143.72
2022-12-15T12:49:59.212Z,99141.91
2022-12-15T12:53:04.837Z,99153.06
2022-12-15T12:56:08.962Z,99152.91
2022-12-15T12:59:42.328Z,99158.66
2022-12-15T13:02:55.754Z,99161.66
2022-12-15T13:06:00.097Z,99160.84
2022-12-15T13:09:23.871Z,99173.00
2022-12-15T13:12:51.986Z,99168.34
2022-12-15T13:16:06.450Z,99176.34
2022-12-15T13:19:11.747Z,99195.97
2022-12-15T13:22:26.477Z,99204.22
2022-12-15T13:25:42.210Z,99201.03
2022-12-15T13:28:51.544Z,99208.69
2022-12-15T13:31:55.599Z,99207.59
2022-12-15T13:35:06.521Z,99206.75
2022-12-15T13:38:19.109Z,99198.38
2022-12-15T13:41:26.442Z,99198.56
2022-12-15T13:44:33.871Z,99206.59
2022-12-15T13:47:38.328Z,99211.66
2022-12-15T13:50:51.445Z,99222.06
2022-12-15T13:54:00.421Z,99221.56
2022-12-15T13:57:06.698Z,99223.00
2022-12-15T14:00:18.858Z,99216.97
2022-12-15T14:03:23.206Z,99220.50
2022-12-15T14:06:31.390Z,99223.38
2022-12-15T14:09:40.227Z,99223.72
2022-12-15T14:12:44.297Z,99224.69
2022-12-15T14:15:52.567Z,99232.91
2022-12-15T14:19:06.876Z,99236.63
2022-12-15T14:22:30.730Z,99239.91
2022-12-15T14:25:34.777Z,99233.03
2022-12-15T14:28:40.703Z,99242.50
2022-12-15T14:31:48.473Z,99253.94
2022-12-15T14:34:52.471Z,99250.00
2022-12-15T14:38:00.111Z,99247.22
2022-12-15T14:41:06.061Z,99256.22
2022-12-15T14:44:31.477Z,99264.72
2022-12-15T14:47:42.282Z,99280.69
2022-12-15T14:50:49.338Z,99279.44
2022-12-15T14:53:56.992Z,99279.75
2022-12-15T14:57:05.672Z,99281.53
2022-12-15T15:00:26.177Z,99287.41
2022-12-15T15:03:38.585Z,99282.97
2022-12-15T15:06:44.384Z,99293.06
2022-12-15T15:09:54.518Z,99293.91
2022-12-15T15:12:58.428Z,99306.28
2022-12-15T15:16:06.712Z,99295.31
2022-12-15T15:19:21.207Z,99304.31
2022-12-15T15:22:41.889Z,99318.66
2022-12-15T15:25:54.082Z,99315.66
2022-12-15T15:28:58.125Z,99317.13
2022-12-15T15:32:07.962Z,99318.97
2022-12-15T15:35:11.802Z,99329.03
2022-12-15T15:38:23.297Z,99333.78
2022-12-15T15:41:32.075Z,99339.50
2022-12-15T15:44:35.783Z,99357.94
2022-12-15T15:47:39.722Z,99340.16
2022-12-15T15:50:44.741Z,99351.44
2022-12-15T15:53:49.031Z,99351.53
2022-12-15T15:56:54.228Z,99339.25
2022-12-15T15:59:59.903Z,99349.69
2022-12-15T16:03:03.827Z,99352.97
2022-12-15T16:06:16.091Z,99360.00
2022-12-15T16:09:20.000Z,99362.81
2022-12-15T16:12:29.853Z,99371.03
2022-12-15T16:15:33.735Z,99381.41
2022-12-15T16:18:37.493Z,99384.47
2022-12-15T16:21:42.248Z,99384.69
2022-12-15T16:24:46.264Z,99383.34
2022-12-15T16:27:51.534Z,99392.19
2022-12-15T16:30:55.984Z,99400.16
2022-12-15T16:34:00.548Z,99404.34
2022-12-15T16:37:04.820Z,99409.25
2022-12-15T16:40:17.207Z,99431.41
2022-12-15T16:43:23.929Z,99433.06
2022-12-15T16:46:27.765Z,99442.69
2022-12-15T16:49:33.971Z,99442.47
2022-12-15T16:52:44.773Z,99443.28
2022-12-15T16:55:50.148Z,99446.28
2022-12-15T16:59:15.449Z,99444.03
2022-12-15T17:02:27.260Z,99454.78
2022-12-15T17:05:34.943Z,99457.78
2022-12-15T17:08:41.609Z,99463.56
2022-12-15T17:11:45.335Z,99462.22
2022-12-15T17:14:50.627Z,99464.53
2022-12-15T17:17:56.194Z,99462.22
2022-12-15T17:21:04.688Z,99462.75
2022-12-15T17:24:13.661Z,99463.03
2022-12-15T17:27:27.953Z,99473.41
2022-12-15T17:30:33.214Z,99469.00
2022-12-15T17:33:36.996Z,99479.19
2022-12-15T17:36:41.001Z,99479.88
2022-12-15T17:39:51.262Z,99475.91
2022-12-15T17:42:55.408Z,99479.47
2022-12-15T17:46:00.769Z,99484.19
2022-12-15T17:49:04.848Z,99483.91
2022-12-15T17:52:18.026Z,99488.66
2022-12-15T17:55:34.614Z,99497.53
2022-12-15T17:58:39.760Z,99496.78
2022-12-15T18:01:45.157Z,99498.03
2022-12-15T18:04:48.954Z,99498.19
2022-12-15T18:07:56.502Z,99500.16
2022-12-15T18:11:00.478Z,99512.22
2022-12-15T18:14:05.018Z,99509.44
2022-12-15T18:17:10.262Z,99500.50
2022-12-15T18:20:14.034Z,99493.28
2022-12-15T18:23:20.126Z,99486.81
2022-12-15T18:26:24.038Z,99489.59
2022-12-15T18:29:27.809Z,99493.56
2022-12-15T18:32:38.440Z,99501.09
2022-12-15T18:35:43.761Z,99516.56
2022-12-15T18:38:47.533Z,99521.38
2022-12-15T18:41:52.128Z,99524.09
2022-12-15T18:44:56.911Z,99528.97
2022-12-15T18:48:02.119Z,99525.75
2022-12-15T18:51:16.491Z,99530.34
2022-12-15T18:54:22.527Z,99537.97
2022-12-15T18:57:30.877Z,99549.25
2022-12-15T19:00:35.191Z,99535.00
2022-12-15T19:03:41.311Z,99533.56
2022-12-15T19:06:46.418Z,99536.97
2022-12-15T19:09:51.371Z,99533.44
2022-12-15T19:12:58.533Z,99543.03
2022-12-15T19:16:06.122Z,99550.44
2022-12-15T19:19:31.186Z,99551.47
2022-12-15T19:22:35.121Z,99554.66
2022-12-15T19:25:39.982Z,99549.44
2022-12-15T19:28:47.912Z,99561.03
2022-12-15T19:31:52.292Z,99550.34
2022-12-15T19:34:57.596Z,99541.84
2022-12-15T19:38:03.190Z,99535.81
2022-12-15T19:41:07.081Z,99542.00
2022-12-15T19:44:16.020Z,99530.91
2022-12-15T19:47:19.908Z,99520.84
2022-12-15T19:50:27.468Z,99527.31
2022-12-15T19:53:32.616Z,99531.63
2022-12-15T19:56:36.944Z,99541.06
2022-12-15T19:59:40.660Z,99545.28
2022-12-15T20:02:44.869Z,99550.25
2022-12-15T20:05:52.219Z,99554.06
2022-12-15T20:08:57.565Z,99550.91
2022-12-15T20:12:01.655Z,99556.56
2022-12-15T20:15:19.346Z,99556.97
2022-12-15T20:18:23.649Z,99549.16
2022-12-15T20:21:32.835Z,99546.41
2022-12-15T20:24:37.175Z,99550.78
2022-12-15T20:27:41.048Z,99554.94
2022-12-15T20:30:45.639Z,99557.41
2022-12-15T20:33:49.979Z,99566.72
2022-12-15T20:36:55.199Z,99564.78
2022-12-15T20:39:58.942Z,99572.78
2022-12-15T20:43:02.850Z,99579.34
2022-12-15T20:46:08.749Z,99583.47
2022-12-15T20:49:17.920Z,99593.47
2022-12-15T20:52:26.456Z,99591.69
2022-12-15T20:55:30.601Z,99598.53
2022-12-15T20:58:40.421Z,99602.91
2022-12-15T21:01:45.583Z,99605.38
2022-12-15T21:04:49.970Z,99612.81
2022-12-15T21:07:55.225Z,99624.06
2022-12-15T21:11:02.925Z,99628.44
2022-12-15T21:14:15.595Z,99633.13
2022-12-15T21:17:21.249Z,99628.16
2022-12-15T21:20:25.088Z,99626.38
2022-12-15T21:23:32.465Z,99634.47
2022-12-15T21:26:36.398Z,99635.28
2022-12-15T21:29:40.048Z,99630.34
2022-12-15T21:32:43.940Z,99626.78
2022-12-15T21:35:49.164Z,99635.28
2022-12-15T21:38:54.916Z,99635.28
2022-12-15T21:42:01.609Z,99634.78
2022-12-15T21:45:14.139Z,99640.84
2022-12-15T21:48:35.635Z,99645.09
2022-12-15T21:51:41.040Z,99650.56
2022-12-15T21:54:46.249Z,99650.31
2022-12-15T21:57:50.029Z,99657.84
2022-12-15T22:00:55.699Z,99656.06
2022-12-15T22:04:03.109Z,99644.28
2022-12-15T22:07:08.177Z,99641.28
2022-12-15T22:10:13.628Z,99632.75
2022-12-15T22:13:20.857Z,99627.69
2022-12-15T22:16:25.323Z,99620.03
2022-12-15T22:19:29.416Z,99614.41
2022-12-15T22:22:33.366Z,99620.72
2022-12-15T22:25:38.668Z,99611.06
2022-12-15T22:28:42.527Z,99612.00
2022-12-15T22:31:46.501Z,99615.13
2022-12-15T22:34:50.495Z,99610.66
2022-12-15T22:37:56.548Z,99602.78
2022-12-15T22:41:02.716Z,99608.72
2022-12-15T22:44:06.776Z,99607.63
2022-12-15T22:47:12.429Z,99608.06
2022-12-15T22:50:19.215Z,99608.53
2022-12-15T22:53:29.118Z,99616.78
2022-12-15T22:56:40.961Z,99621.03
2022-12-15T22:59:50.899Z,99619.53
2022-12-15T23:02:55.533Z,99621.72
2022-12-15T23:06:00.158Z,99622.56
2022-12-15T23:09:03.856Z,99621.19
2022-12-15T23:12:09.513Z,99626.00
2022-12-15T23:15:30.279Z,99636.84
2022-12-15T23:18:34.040Z,99625.34
2022-12-15T23:21:38.179Z,99629.16
2022-12-15T23:24:42.135Z,99617.91
2022-12-15T23:27:47.450Z,99618.59
2022-12-15T23:30:53.228Z,99616.94
2022-12-15T23:33:57.125Z,99613.81
2022-12-15T23:37:01.142Z,99610.22
2022-12-15T23:40:05.930Z,99602.25
2022-12-15T23:43:11.071Z,99599.78
2022-12-15T23:46:15.261Z,99605.28
2022-12-15T23:49:19.078Z,99609.66
2022-12-15T23:52:22.856Z,99611.31
2022-12-15T23:55:26.623Z,99626.13
2022-12-15T23:58:31.800Z,99627.06
